createdAt,value
2018-02-18T00:00:17.763Z,15.27
2018-02-18T00:02:45.496Z,16.35
2018-02-18T00:05:13.264Z,15.90
2018-02-18T00:07:41.961Z,17.60
2018-02-18T00:10:09.761Z,20.52
2018-02-18T00:12:37.529Z,16.58
2018-02-18T00:15:10.752Z,17.02
2018-02-18T00:17:38.511Z,19.15
2018-02-18T00:20:06.256Z,14.63
2018-02-18T00:22:33.985Z,18.58
2018-02-18T00:25:01.728Z,15.85
2018-02-18T00:27:29.453Z,17.10
2018-02-18T00:29:57.244Z,16.67
2018-02-18T00:32:24.983Z,15.68
2018-02-18T00:34:52.823Z,16.73
2018-02-18T00:37:20.542Z,17.02
2018-02-18T00:39:48.284Z,15.68
2018-02-18T00:42:16.027Z,15.10
2018-02-18T00:44:43.787Z,19.37
2018-02-18T00:47:11.529Z,19.42
2018-02-18T00:49:39.307Z,20.67
2018-02-18T00:52:07.083Z,17.90
2018-02-18T00:54:34.849Z,18.05
2018-02-18T00:57:02.575Z,20.15
2018-02-18T00:59:30.356Z,13.90
2018-02-18T01:01:58.094Z,24.20
2018-02-18T01:04:25.814Z,15.75
2018-02-18T01:06:53.584Z,12.45
2018-02-18T01:09:21.354Z,15.45
2018-02-18T01:11:49.128Z,13.40
2018-02-18T01:14:16.843Z,15.60
2018-02-18T01:16:44.593Z,15.65
2018-02-18T01:19:12.328Z,13.70
2018-02-18T01:21:40.068Z,19.65
2018-02-18T01:24:07.834Z,13.18
2018-02-18T01:26:35.567Z,15.27
2018-02-18T01:29:03.351Z,17.20
2018-02-18T01:31:31.102Z,11.70
2018-02-18T01:33:58.800Z,16.20
2018-02-18T01:36:27.374Z,12.88
2018-02-18T01:38:55.150Z,15.82
2018-02-18T01:41:23.834Z,16.45
2018-02-18T01:43:51.667Z,18.10
2018-02-18T01:46:19.394Z,13.35
2018-02-18T01:48:47.237Z,18.67
2018-02-18T01:51:15.051Z,15.88
2018-02-18T01:53:42.787Z,13.05
2018-02-18T01:56:10.546Z,16.17
2018-02-18T01:58:38.340Z,12.85
2018-02-18T02:01:06.109Z,16.37
2018-02-18T02:03:33.937Z,13.82
2018-02-18T02:06:01.715Z,13.82
2018-02-18T02:08:29.509Z,15.73
2018-02-18T02:10:57.264Z,16.73
2018-02-18T02:13:25.028Z,13.20
2018-02-18T02:15:52.841Z,12.48
2018-02-18T02:18:20.648Z,12.60
2018-02-18T02:20:48.409Z,16.25
2018-02-18T02:23:16.221Z,13.75
2018-02-18T02:25:43.956Z,18.30
2018-02-18T02:28:11.765Z,11.73
2018-02-18T02:30:39.482Z,13.73
2018-02-18T02:33:07.281Z,15.70
2018-02-18T02:35:35.062Z,17.08
2018-02-18T02:38:02.819Z,25.12
2018-02-18T02:40:30.541Z,12.68
2018-02-18T02:42:58.297Z,11.80
2018-02-18T02:45:26.042Z,15.30
2018-02-18T02:47:53.833Z,15.80
2018-02-18T02:50:21.643Z,19.15
2018-02-18T02:52:49.422Z,19.95
2018-02-18T02:55:17.180Z,14.30
2018-02-18T02:57:44.888Z,13.27
2018-02-18T03:00:12.655Z,16.75
2018-02-18T03:02:40.499Z,13.80
2018-02-18T03:05:08.298Z,12.82
2018-02-18T03:07:36.115Z,15.55
2018-02-18T03:10:03.881Z,16.75
2018-02-18T03:12:31.685Z,17.20
2018-02-18T03:14:59.518Z,19.77
2018-02-18T03:17:27.431Z,13.93
2018-02-18T03:19:55.283Z,12.10
2018-02-18T03:22:23.103Z,16.73
2018-02-18T03:24:50.861Z,13.38
2018-02-18T03:27:18.702Z,19.10
2018-02-18T03:29:46.630Z,21.98
2018-02-18T03:32:14.640Z,17.52
2018-02-18T03:34:42.514Z,15.38
2018-02-18T03:37:10.319Z,14.87
2018-02-18T03:39:38.168Z,14.82
2018-02-18T03:42:05.963Z,19.35
2018-02-18T03:44:33.793Z,21.50
2018-02-18T03:47:01.556Z,13.20
2018-02-18T03:49:29.358Z,17.20
2018-02-18T03:51:57.134Z,19.62
2018-02-18T03:54:24.939Z,19.70
2018-02-18T03:56:52.788Z,17.62
2018-02-18T03:59:21.050Z,17.65
2018-02-18T04:01:48.875Z,14.43
2018-02-18T04:04:17.515Z,16.33
2018-02-18T04:06:45.386Z,13.82
2018-02-18T04:09:13.128Z,16.87
2018-02-18T04:11:41.068Z,13.50
2018-02-18T04:14:08.856Z,17.95
2018-02-18T04:16:37.267Z,17.48
2018-02-18T04:19:05.028Z,15.60
2018-02-18T04:21:32.816Z,15.00
2018-02-18T04:24:00.668Z,19.23
2018-02-18T04:26:28.778Z,16.95
2018-02-18T04:28:56.524Z,16.70
2018-02-18T04:31:24.356Z,16.85
2018-02-18T04:33:52.178Z,17.05
2018-02-18T04:36:19.967Z,20.33
2018-02-18T04:38:47.770Z,16.00
2018-02-18T04:41:15.573Z,13.80
2018-02-18T04:43:43.401Z,22.13
2018-02-18T04:46:11.208Z,16.35
2018-02-18T04:48:38.960Z,14.68
2018-02-18T04:51:06.753Z,17.80
2018-02-18T04:53:34.593Z,20.98
2018-02-18T04:56:02.376Z,17.67
2018-02-18T04:58:30.212Z,20.88
2018-02-18T05:00:58.824Z,24.92
2018-02-18T05:03:27.410Z,20.60
2018-02-18T05:05:55.556Z,18.42
2018-02-18T05:08:23.353Z,21.60
2018-02-18T05:10:51.226Z,16.00
2018-02-18T05:13:19.532Z,14.93
2018-02-18T05:15:47.340Z,21.83
2018-02-18T05:18:15.179Z,22.35
2018-02-18T05:20:42.986Z,16.95
2018-02-18T05:23:10.854Z,20.80
2018-02-18T05:25:39.109Z,20.08
2018-02-18T05:28:07.043Z,20.70
2018-02-18T05:30:35.849Z,19.60
2018-02-18T05:33:03.885Z,21.05
2018-02-18T05:35:31.804Z,19.02
2018-02-18T05:38:01.185Z,22.65
2018-02-18T05:40:29.051Z,24.33
2018-02-18T05:42:57.761Z,16.77
2018-02-18T05:45:25.706Z,21.10
2018-02-18T05:47:53.607Z,22.83
2018-02-18T05:50:21.411Z,26.95
2018-02-18T05:52:50.107Z,24.42
2018-02-18T05:55:17.929Z,20.30
2018-02-18T05:57:45.922Z,21.48
2018-02-18T06:00:13.786Z,24.48
2018-02-18T06:02:41.630Z,18.55
2018-02-18T06:05:09.434Z,17.48
2018-02-18T06:07:37.299Z,26.75
2018-02-18T06:10:05.217Z,20.15
2018-02-18T06:12:33.154Z,21.42
2018-02-18T06:15:00.977Z,24.15
2018-02-18T06:17:28.778Z,17.02
2018-02-18T06:19:56.648Z,15.75
2018-02-18T06:22:24.451Z,21.37
2018-02-18T06:24:52.332Z,17.87
2018-02-18T06:27:20.170Z,21.00
2018-02-18T06:29:48.102Z,21.45
2018-02-18T06:32:15.997Z,22.27
2018-02-18T06:34:43.873Z,17.98
2018-02-18T06:37:11.805Z,17.85
2018-02-18T06:39:39.721Z,25.27
2018-02-18T06:42:07.669Z,24.75
2018-02-18T06:44:36.644Z,19.60
2018-02-18T06:47:04.619Z,19.23
2018-02-18T06:49:32.665Z,24.12
2018-02-18T06:52:00.566Z,24.05
2018-02-18T06:54:28.672Z,32.05
2018-02-18T06:56:56.722Z,27.60
2018-02-18T06:59:24.753Z,19.90
2018-02-18T07:01:52.698Z,23.33
2018-02-18T07:04:20.629Z,22.85
2018-02-18T07:06:48.488Z,24.45
2018-02-18T07:09:16.376Z,18.67
2018-02-18T07:11:44.593Z,23.60
2018-02-18T07:14:13.585Z,25.20
2018-02-18T07:16:41.560Z,31.17
2018-02-18T07:19:09.406Z,21.00
2018-02-18T07:21:37.251Z,23.60
2018-02-18T07:24:05.255Z,25.30
2018-02-18T07:26:33.163Z,20.27
2018-02-18T07:29:01.038Z,28.02
2018-02-18T07:31:29.194Z,20.20
2018-02-18T07:33:57.179Z,23.75
2018-02-18T07:36:25.702Z,22.62
2018-02-18T07:38:53.720Z,24.70
2018-02-18T07:41:21.620Z,20.20
2018-02-18T07:43:49.449Z,19.70
2018-02-18T07:46:17.215Z,27.27
2018-02-18T07:48:45.130Z,25.90
2018-02-18T07:51:13.057Z,22.70
2018-02-18T07:53:41.748Z,24.40
2018-02-18T07:56:09.576Z,28.77
2018-02-18T07:58:37.628Z,24.20
2018-02-18T08:01:05.612Z,24.05
2018-02-18T08:03:33.526Z,21.15
2018-02-18T08:06:01.702Z,25.05
2018-02-18T08:08:29.979Z,24.50
2018-02-18T08:10:57.932Z,25.02
2018-02-18T08:13:25.871Z,26.45
2018-02-18T08:15:53.816Z,30.48
2018-02-18T08:18:21.847Z,26.85
2018-02-18T08:20:49.835Z,29.95
2018-02-18T08:23:18.615Z,28.95
2018-02-18T08:25:47.217Z,25.02
2018-02-18T08:28:15.132Z,29.52
2018-02-18T08:30:42.991Z,28.98
2018-02-18T08:33:10.815Z,30.58
2018-02-18T08:35:39.460Z,25.85
2018-02-18T08:38:07.426Z,27.95
2018-02-18T08:40:35.285Z,27.10
2018-02-18T08:43:03.101Z,24.05
2018-02-18T08:45:30.984Z,26.40
2018-02-18T08:47:58.876Z,29.52
2018-02-18T08:50:26.760Z,24.23
2018-02-18T08:52:54.508Z,28.55
2018-02-18T08:55:22.313Z,23.20
2018-02-18T08:57:50.113Z,26.17
2018-02-18T09:00:18.168Z,33.95
2018-02-18T09:02:46.033Z,25.17
2018-02-18T09:05:13.885Z,32.28
2018-02-18T09:07:41.687Z,25.52
2018-02-18T09:10:09.551Z,23.70
2018-02-18T09:12:37.707Z,26.52
2018-02-18T09:15:05.786Z,28.73
2018-02-18T09:17:33.557Z,31.00
2018-02-18T09:20:02.243Z,26.33
2018-02-18T09:22:30.103Z,32.38
2018-02-18T09:24:58.045Z,26.95
2018-02-18T09:27:25.977Z,28.10
2018-02-18T09:29:53.866Z,39.15
2018-02-18T09:32:21.689Z,30.27
2018-02-18T09:34:49.566Z,25.27
2018-02-18T09:37:17.429Z,25.50
2018-02-18T09:39:45.537Z,27.08
2018-02-18T09:42:13.333Z,23.75
2018-02-18T09:44:41.167Z,35.00
2018-02-18T09:47:08.880Z,29.25
2018-02-18T09:49:36.606Z,29.30
2018-02-18T09:52:04.554Z,25.80
2018-02-18T09:54:32.370Z,28.27
2018-02-18T09:57:00.086Z,25.05
2018-02-18T09:59:27.838Z,25.80
2018-02-18T10:01:56.003Z,22.85
2018-02-18T10:04:23.750Z,26.83
2018-02-18T10:06:51.544Z,27.87
2018-02-18T10:09:32.595Z,30.48
2018-02-18T10:15:14.073Z,24.33
2018-02-18T10:17:41.670Z,24.10
2018-02-18T10:20:09.335Z,23.20
2018-02-18T10:22:36.946Z,25.20
2018-02-18T10:25:04.651Z,23.23
2018-02-18T10:27:32.252Z,27.63
2018-02-18T10:29:59.900Z,22.20
2018-02-18T10:32:27.559Z,36.93
2018-02-18T10:34:55.191Z,18.53
2018-02-18T10:37:22.855Z,19.97
2018-02-18T10:39:50.439Z,22.50
2018-02-18T10:42:18.041Z,17.37
2018-02-18T10:44:45.664Z,17.67
2018-02-18T10:47:13.296Z,18.83
2018-02-18T10:49:40.954Z,16.70
2018-02-18T10:52:08.591Z,17.73
2018-02-18T10:54:36.223Z,20.07
2018-02-18T10:57:03.839Z,16.13
2018-02-18T10:59:31.529Z,16.90
2018-02-18T11:01:59.152Z,27.20
2018-02-18T11:04:29.391Z,23.57
2018-02-18T11:06:57.017Z,17.77
2018-02-18T11:09:24.660Z,17.03
2018-02-18T11:11:52.307Z,16.50
2018-02-18T11:14:19.991Z,18.20
2018-02-18T11:16:47.619Z,19.80
2018-02-18T11:19:15.239Z,17.13
2018-02-18T11:21:42.890Z,15.50
2018-02-18T11:24:10.489Z,17.43
2018-02-18T11:26:38.128Z,17.13
2018-02-18T11:29:06.548Z,18.30
2018-02-18T11:31:34.208Z,24.10
2018-02-18T11:34:01.872Z,20.57
2018-02-18T11:36:29.515Z,16.63
2018-02-18T11:38:57.280Z,13.00
2018-02-18T11:41:24.931Z,15.87
2018-02-18T11:43:52.539Z,17.17
2018-02-18T11:46:20.186Z,16.07
2018-02-18T11:48:47.800Z,12.60
2018-02-18T11:51:15.432Z,16.00
2018-02-18T11:53:43.069Z,12.60
2018-02-18T11:56:10.707Z,12.73
2018-02-18T11:58:38.403Z,20.70
2018-02-18T12:01:06.040Z,13.93
2018-02-18T12:03:33.638Z,15.10
2018-02-18T12:06:01.292Z,18.73
2018-02-18T12:08:28.966Z,19.40
2018-02-18T12:10:56.619Z,14.30
2018-02-18T12:13:24.320Z,13.03
2018-02-18T12:15:51.968Z,15.40
2018-02-18T12:18:19.590Z,17.93
2018-02-18T12:20:47.240Z,17.23
2018-02-18T12:23:14.869Z,15.43
2018-02-18T12:25:42.738Z,13.23
2018-02-18T12:28:10.359Z,15.20
2018-02-18T12:30:38.027Z,12.57
2018-02-18T12:33:05.664Z,12.50
2018-02-18T12:35:34.394Z,13.07
2018-02-18T12:38:02.027Z,29.10
2018-02-18T12:40:30.379Z,16.70
2018-02-18T12:42:58.064Z,16.53
2018-02-18T12:45:25.739Z,14.10
2018-02-18T12:47:53.421Z,13.20
2018-02-18T12:50:21.066Z,14.70
2018-02-18T12:52:48.672Z,17.20
2018-02-18T12:55:16.318Z,11.60
2018-02-18T12:57:43.976Z,10.37
2018-02-18T13:00:12.401Z,10.27
2018-02-18T13:02:40.046Z,12.70
2018-02-18T13:05:07.720Z,9.80
2018-02-18T13:07:35.398Z,11.23
2018-02-18T13:10:03.078Z,10.07
2018-02-18T13:12:30.666Z,9.93
2018-02-18T13:14:58.289Z,10.03
2018-02-18T13:17:25.920Z,16.47
2018-02-18T13:19:53.559Z,8.50
2018-02-18T13:22:21.185Z,11.20
2018-02-18T13:24:48.813Z,11.87
2018-02-18T13:27:16.411Z,8.90
2018-02-18T13:29:44.818Z,9.90
2018-02-18T13:32:12.443Z,8.10
2018-02-18T13:34:40.123Z,9.90
2018-02-18T13:37:07.711Z,11.17
2018-02-18T13:39:35.372Z,14.40
2018-02-18T13:42:02.964Z,12.20
2018-02-18T13:44:30.590Z,9.37
2018-02-18T13:46:58.203Z,8.27
2018-02-18T13:49:25.854Z,7.57
2018-02-18T13:51:53.571Z,12.57
2018-02-18T13:54:21.222Z,9.27
2018-02-18T13:56:48.828Z,9.20
2018-02-18T13:59:16.461Z,11.90
2018-02-18T14:01:44.019Z,9.93
2018-02-18T14:04:11.667Z,10.30
2018-02-18T14:06:39.275Z,15.77
2018-02-18T14:09:06.919Z,17.23
2018-02-18T14:11:34.522Z,13.37
2018-02-18T14:14:03.690Z,9.50
2018-02-18T14:16:31.340Z,10.37
2018-02-18T14:18:58.974Z,9.77
2018-02-18T14:21:26.911Z,14.20
2018-02-18T14:23:54.518Z,16.77
2018-02-18T14:26:22.170Z,9.73
2018-02-18T14:28:49.774Z,8.10
2018-02-18T14:31:17.410Z,9.33
2018-02-18T14:33:45.018Z,10.00
2018-02-18T14:36:12.679Z,11.70
2018-02-18T14:38:40.311Z,13.10
2018-02-18T14:41:07.934Z,13.70
2018-02-18T14:43:47.410Z,16.70
2018-02-18T14:46:26.806Z,14.00
2018-02-18T14:49:06.247Z,12.37
2018-02-18T14:51:45.632Z,11.53
2018-02-18T14:57:33.046Z,22.90
2018-02-18T15:00:00.674Z,15.10
2018-02-18T15:02:28.292Z,15.93
2018-02-18T15:04:55.927Z,14.70
2018-02-18T15:07:23.590Z,12.77
2018-02-18T15:09:51.212Z,13.00
2018-02-18T15:12:18.811Z,15.10
2018-02-18T15:14:46.458Z,15.67
2018-02-18T15:17:14.077Z,17.03
2018-02-18T15:19:41.707Z,24.57
2018-02-18T15:22:09.330Z,12.30
2018-02-18T15:24:36.972Z,13.00
2018-02-18T15:27:04.571Z,10.93
2018-02-18T15:29:32.179Z,12.30
2018-02-18T15:31:59.800Z,10.50
2018-02-18T15:34:27.395Z,11.17
2018-02-18T15:36:54.995Z,14.70
2018-02-18T15:39:22.651Z,12.97
2018-02-18T15:41:50.308Z,10.83
2018-02-18T15:44:18.005Z,17.40
2018-02-18T15:46:45.654Z,13.80
2018-02-18T15:49:13.306Z,12.90
2018-02-18T15:51:40.953Z,10.67
2018-02-18T15:54:08.556Z,12.30
2018-02-18T15:56:36.204Z,9.90
2018-02-18T15:59:03.828Z,9.40
2018-02-18T16:01:31.502Z,11.40
2018-02-18T16:03:59.269Z,10.57
2018-02-18T16:06:27.035Z,12.63
2018-02-18T16:08:54.625Z,10.97
2018-02-18T16:11:22.332Z,14.43
2018-02-18T16:13:49.919Z,13.30
2018-02-18T16:16:17.556Z,13.00
2018-02-18T16:18:45.168Z,9.47
2018-02-18T16:21:12.791Z,10.77
2018-02-18T16:23:40.410Z,13.17
2018-02-18T16:26:08.055Z,12.00
2018-02-18T16:28:35.654Z,13.57
2018-02-18T16:31:03.272Z,9.73
2018-02-18T16:33:30.879Z,11.80
2018-02-18T16:35:58.510Z,11.70
2018-02-18T16:38:26.111Z,14.07
2018-02-18T16:40:53.795Z,14.50
2018-02-18T16:43:21.399Z,20.30
2018-02-18T16:45:49.063Z,13.30
2018-02-18T16:48:16.667Z,12.07
2018-02-18T16:50:44.309Z,15.83
2018-02-18T16:53:11.920Z,18.40
2018-02-18T16:55:39.571Z,15.23
2018-02-18T16:58:07.183Z,15.30
2018-02-18T17:00:34.810Z,13.77
2018-02-18T17:03:02.415Z,13.13
2018-02-18T17:05:30.040Z,13.77
2018-02-18T17:07:57.671Z,14.77
2018-02-18T17:10:25.321Z,15.80
2018-02-18T17:12:52.943Z,18.73
2018-02-18T17:15:20.594Z,21.73
2018-02-18T17:17:48.208Z,23.07
2018-02-18T17:20:15.873Z,21.50
2018-02-18T17:22:43.481Z,24.00
2018-02-18T17:25:11.228Z,16.37
2018-02-18T17:27:38.833Z,17.50
2018-02-18T17:30:06.446Z,15.63
2018-02-18T17:32:34.104Z,14.80
2018-02-18T17:35:01.758Z,17.30
2018-02-18T17:37:29.370Z,14.53
2018-02-18T17:39:57.075Z,14.17
2018-02-18T17:42:24.688Z,15.73
2018-02-18T17:44:52.354Z,16.13
2018-02-18T17:47:20.046Z,17.07
2018-02-18T17:49:47.701Z,16.63
2018-02-18T17:52:15.548Z,17.67
2018-02-18T17:54:43.167Z,14.40
2018-02-18T17:57:10.797Z,17.47
2018-02-18T17:59:38.414Z,26.47
2018-02-18T18:02:06.046Z,19.50
2018-02-18T18:04:33.668Z,18.83
2018-02-18T18:07:01.436Z,19.00
2018-02-18T18:09:29.034Z,16.57
2018-02-18T18:11:56.678Z,15.87
2018-02-18T18:14:24.285Z,19.03
2018-02-18T18:16:51.949Z,24.77
2018-02-18T18:19:19.555Z,31.77
2018-02-18T18:21:47.225Z,26.17
2018-02-18T18:24:14.808Z,52.00
2018-02-18T18:26:42.448Z,26.00
2018-02-18T18:29:10.064Z,20.97
2018-02-18T18:31:37.705Z,17.17
2018-02-18T18:34:05.311Z,16.87
2018-02-18T18:36:32.945Z,22.03
2018-02-18T18:39:00.555Z,18.73
2018-02-18T18:41:28.185Z,15.23
2018-02-18T18:43:55.820Z,19.33
2018-02-18T18:46:23.451Z,16.53
2018-02-18T18:48:51.075Z,15.83
2018-02-18T18:51:18.731Z,21.37
2018-02-18T18:53:46.343Z,23.03
2018-02-18T18:56:13.991Z,16.97
2018-02-18T18:58:41.598Z,27.73
2018-02-18T19:01:09.242Z,23.90
2018-02-18T19:03:36.851Z,17.30
2018-02-18T19:06:04.488Z,18.60
2018-02-18T19:08:32.100Z,17.73
2018-02-18T19:10:59.738Z,21.30
2018-02-18T19:13:27.335Z,22.73
2018-02-18T19:15:54.986Z,27.43
2018-02-18T19:18:22.657Z,19.60
2018-02-18T19:20:50.277Z,21.30
2018-02-18T19:23:17.889Z,17.63
2018-02-18T19:25:45.542Z,19.37
2018-02-18T19:28:13.139Z,27.17
2018-02-18T19:30:40.776Z,19.73
2018-02-18T19:33:08.395Z,23.03
2018-02-18T19:35:36.032Z,23.93
2018-02-18T19:38:03.667Z,21.00
2018-02-18T19:40:31.340Z,20.13
2018-02-18T19:42:58.951Z,22.50
2018-02-18T19:45:26.600Z,23.97
2018-02-18T19:47:54.221Z,27.73
2018-02-18T19:50:21.899Z,20.87
2018-02-18T19:52:49.550Z,25.30
2018-02-18T19:55:17.235Z,24.13
2018-02-18T19:57:44.850Z,22.17
2018-02-18T20:00:12.530Z,24.30
2018-02-18T20:02:40.146Z,23.57
2018-02-18T20:05:07.840Z,20.90
2018-02-18T20:07:35.469Z,27.17
2018-02-18T20:10:03.339Z,37.60
2018-02-18T20:12:30.983Z,32.57
2018-02-18T20:14:58.672Z,33.63
2018-02-18T20:17:26.287Z,23.97
2018-02-18T20:19:54.180Z,22.23
2018-02-18T20:22:21.783Z,23.93
2018-02-18T20:24:49.418Z,25.07
2018-02-18T20:27:17.205Z,26.92
2018-02-18T20:29:44.843Z,31.15
2018-02-18T20:32:12.474Z,25.33
2018-02-18T20:34:40.184Z,24.42
2018-02-18T20:37:08.021Z,26.83
2018-02-18T20:39:35.651Z,22.47
2018-02-18T20:42:03.317Z,22.80
2018-02-18T20:44:31.001Z,23.47
2018-02-18T20:46:58.700Z,25.23
2018-02-18T20:49:26.331Z,25.63
2018-02-18T20:51:53.973Z,20.97
2018-02-18T20:54:21.573Z,30.93
2018-02-18T20:56:49.226Z,24.20
2018-02-18T20:59:16.843Z,27.53
2018-02-18T21:01:44.513Z,23.90
2018-02-18T21:04:12.187Z,28.30
2018-02-18T21:06:39.848Z,21.87
2018-02-18T21:09:07.608Z,26.53
2018-02-18T21:11:35.253Z,22.93
2018-02-18T21:14:02.868Z,29.27
2018-02-18T21:16:30.492Z,25.00
2018-02-18T21:18:58.090Z,22.53
2018-02-18T21:21:25.827Z,31.08
2018-02-18T21:23:53.422Z,27.13
2018-02-18T21:26:21.078Z,24.93
2018-02-18T21:28:48.679Z,22.07
2018-02-18T21:31:16.339Z,20.63
2018-02-18T21:33:44.137Z,22.00
2018-02-18T21:36:11.750Z,26.17
2018-02-18T21:38:39.488Z,19.73
2018-02-18T21:41:07.156Z,23.52
2018-02-18T21:43:34.920Z,21.30
2018-02-18T21:46:02.584Z,22.50
2018-02-18T21:48:30.296Z,22.98
2018-02-18T21:50:58.018Z,30.50
2018-02-18T21:53:25.682Z,19.73
2018-02-18T21:55:53.363Z,26.05
2018-02-18T21:58:21.111Z,22.87
2018-02-18T22:00:48.866Z,23.60
2018-02-18T22:03:16.578Z,26.60
2018-02-18T22:05:44.303Z,24.87
2018-02-18T22:08:12.095Z,24.75
2018-02-18T22:10:39.816Z,27.80
2018-02-18T22:13:07.634Z,23.85
2018-02-18T22:15:35.320Z,24.37
2018-02-18T22:18:03.055Z,21.30
2018-02-18T22:20:30.778Z,27.55
2018-02-18T22:22:58.648Z,21.67
2018-02-18T22:25:26.415Z,24.92
2018-02-18T22:27:54.224Z,21.58
2018-02-18T22:30:22.130Z,25.03
2018-02-18T22:32:49.965Z,29.35
2018-02-18T22:35:17.704Z,25.83
2018-02-18T22:37:45.532Z,21.20
2018-02-18T22:40:13.248Z,24.90
2018-02-18T22:42:40.920Z,27.20
2018-02-18T22:45:08.599Z,22.33
2018-02-18T22:47:36.230Z,24.57
2018-02-18T22:50:03.927Z,25.23
2018-02-18T22:52:31.570Z,24.50
2018-02-18T22:54:59.171Z,23.80
2018-02-18T22:57:26.789Z,23.27
2018-02-18T22:59:54.394Z,23.27
2018-02-18T23:02:22.035Z,22.37
2018-02-18T23:04:49.735Z,33.05
2018-02-18T23:07:17.557Z,25.33
2018-02-18T23:09:45.147Z,26.27
2018-02-18T23:12:12.779Z,25.27
2018-02-18T23:14:40.471Z,26.85
2018-02-18T23:17:08.190Z,29.87
2018-02-18T23:19:35.865Z,29.42
2018-02-18T23:22:03.624Z,24.23
2018-02-18T23:24:31.303Z,30.92
2018-02-18T23:26:59.055Z,30.95
2018-02-18T23:29:26.742Z,26.92
2018-02-18T23:31:54.459Z,27.77
2018-02-18T23:34:22.122Z,32.58
2018-02-18T23:36:49.818Z,30.92
2018-02-18T23:39:17.614Z,27.35
2018-02-18T23:41:45.289Z,28.48
2018-02-18T23:44:13.004Z,23.77
2018-02-18T23:46:40.699Z,29.85
2018-02-18T23:49:08.419Z,33.70
2018-02-18T23:51:36.099Z,27.37
2018-02-18T23:54:03.855Z,25.60
2018-02-18T23:56:31.534Z,27.98
2018-02-18T23:58:59.268Z,24.05
